createdAt,value
2022-11-17T00:18:02.029Z,85
2022-11-17T00:58:01.955Z,87.7
2022-11-17T01:58:01.843Z,92.5
2022-11-17T02:18:01.809Z,96
2022-11-17T02:38:01.772Z,95.5
2022-11-17T02:58:01.736Z,95.8
2022-11-17T03:18:01.709Z,95.4
2022-11-17T03:38:01.717Z,95.2
2022-11-17T03:58:01.633Z,94.6
2022-11-17T04:18:01.597Z,94.3
2022-11-17T04:38:01.594Z,93.6
2022-11-17T04:58:01.535Z,92.8
2022-11-17T05:18:01.500Z,91.4
2022-11-17T05:58:01.428Z,89.7
2022-11-17T06:18:01.382Z,89.8
2022-11-17T06:38:01.363Z,93.4
2022-11-17T06:58:01.340Z,94.7
2022-11-17T07:18:01.300Z,92.7
2022-11-17T07:38:01.258Z,91.5
2022-11-17T07:58:01.251Z,90.7
2022-11-17T08:18:01.189Z,90.3
2022-11-17T09:18:01.075Z,90.9
2022-11-17T09:38:01.027Z,91.6
2022-11-17T09:58:00.996Z,92.3
2022-11-17T10:18:00.978Z,92
2022-11-17T10:38:00.929Z,89.7
2022-11-17T10:58:00.896Z,86
2022-11-17T11:18:00.848Z,79.9
2022-11-17T11:58:00.778Z,76.3
2022-11-17T12:18:00.743Z,75.4
2022-11-17T12:38:00.703Z,76.5
2022-11-17T12:58:00.668Z,75.4
2022-11-17T13:18:00.622Z,75.2
2022-11-17T13:38:00.601Z,76.7
2022-11-17T13:58:00.548Z,75.5
2022-11-17T14:18:00.564Z,75.6
2022-11-17T14:38:00.487Z,77
2022-11-17T14:58:00.480Z,77.5
2022-11-17T15:18:00.409Z,77.6
2022-11-17T15:38:00.366Z,76.7
2022-11-17T16:18:00.330Z,75.8
2022-11-17T16:38:00.265Z,77.4
2022-11-17T16:58:00.231Z,80.3
2022-11-17T17:18:00.197Z,90.9
2022-11-17T17:38:00.158Z,94.5
2022-11-17T18:38:00.051Z,92.3
2022-11-17T18:58:00.011Z,93.6
2022-11-17T19:17:59.982Z,92.1
2022-11-17T19:37:59.948Z,90.1
2022-11-17T19:57:59.922Z,87.9
2022-11-17T20:17:59.922Z,87.3
2022-11-17T20:37:59.848Z,87.5
2022-11-17T20:57:59.808Z,87.9
2022-11-17T21:17:59.792Z,88.8
2022-11-17T21:37:59.751Z,89.4
2022-11-17T21:57:59.711Z,90
2022-11-17T22:37:59.642Z,92.7
2022-11-17T22:57:59.611Z,93.8
2022-11-17T23:17:59.577Z,96.3
2022-11-17T23:37:59.560Z,97.7
2022-11-17T23:57:59.532Z,98.5
